Time;durP1;ratioP1;P1;durP2;ratioP2;P2;SDS_P1;SDS_P2;PMS_P1;PMS_P2;Temp;Humidity;BMP_temperature;BMP_pressure;BME280_temperature;BME280_humidity;BME280_pressure;Samples;Min_cycle;Max_cycle;Signal;HPM_P1;HPM_P2
2023/06/24 00:00:14;;;;;;;6.32;4.75;;;21.40;61.40;;;;;;5032210;28;20068;-52
2023/06/24 00:02:45;;;;;;;6.05;4.53;;;21.40;61.60;;;;;;5009308;28;20076;-52
2023/06/24 00:05:17;;;;;;;8.40;5.47;;;21.40;61.50;;;;;;5030921;28;20048;-50
2023/06/24 00:07:48;;;;;;;5.22;4.72;;;21.40;61.60;;;;;;5030802;28;20128;-52
2023/06/24 00:10:20;;;;;;;8.63;4.75;;;21.40;61.60;;;;;;5031815;28;20037;-52
2023/06/24 00:12:51;;;;;;;5.60;4.75;;;21.40;61.50;;;;;;5024918;28;20045;-52
2023/06/24 00:15:20;;;;;;;5.47;4.57;;;21.30;61.50;;;;;;5023682;28;20077;-52
2023/06/24 00:17:48;;;;;;;6.35;4.45;;;21.30;61.70;;;;;;5030488;28;20656;-52
2023/06/24 00:20:17;;;;;;;7.90;4.38;;;21.30;61.80;;;;;;5031498;28;20486;-50
2023/06/24 00:22:48;;;;;;;8.48;4.43;;;21.30;61.80;;;;;;5027405;28;20063;-51
2023/06/24 00:25:15;;;;;;;4.97;4.32;;;21.30;61.90;;;;;;5024998;28;20069;-53
2023/06/24 00:27:42;;;;;;;8.52;4.80;;;21.30;62.00;;;;;;5030290;28;20453;-50
2023/06/24 00:30:10;;;;;;;5.78;4.80;;;21.20;62.00;;;;;;5031111;28;20564;-50
2023/06/24 00:32:39;;;;;;;5.75;3.97;;;21.20;62.00;;;;;;5029941;28;20050;-53
2023/06/24 00:35:10;;;;;;;7.40;5.30;;;21.20;62.00;;;;;;5008982;28;20061;-51
2023/06/24 00:37:41;;;;;;;7.07;4.75;;;21.10;62.00;;;;;;5029794;28;20038;-52
2023/06/24 00:40:11;;;;;;;9.40;5.80;;;21.10;62.00;;;;;;5011817;28;20107;-52
2023/06/24 00:42:38;;;;;;;5.38;4.88;;;21.10;62.10;;;;;;5009243;28;20045;-52
2023/06/24 00:45:13;;;;;;;7.22;4.38;;;21.10;62.30;;;;;;5011384;28;20038;-50
2023/06/24 00:47:40;;;;;;;11.82;5.82;;;21.10;62.40;;;;;;5012082;28;20080;-52
2023/06/24 00:50:08;;;;;;;7.28;4.93;;;21.10;62.50;;;;;;5010451;28;20792;-50
2023/06/24 00:52:39;;;;;;;10.70;4.93;;;21.00;62.60;;;;;;5024921;28;20037;-50
2023/06/24 00:55:06;;;;;;;8.10;4.93;;;21.00;62.80;;;;;;5022444;28;20100;-50
2023/06/24 00:57:37;;;;;;;7.15;4.97;;;21.10;63.00;;;;;;5029339;28;20049;-50
2023/06/24 01:00:17;;;;;;;7.53;5.10;;;21.10;63.10;;;;;;5029363;28;20049;-52
2023/06/24 01:02:51;;;;;;;7.60;4.93;;;21.00;63.20;;;;;;5025960;28;20033;-51
2023/06/24 01:05:23;;;;;;;7.35;5.13;;;21.10;63.30;;;;;;5037234;28;20121;-50
2023/06/24 01:07:55;;;;;;;7.18;5.85;;;21.10;63.50;;;;;;5011655;28;20092;-52
2023/06/24 01:10:23;;;;;;;10.43;5.65;;;21.10;63.50;;;;;;5011691;28;20073;-52
2023/06/24 01:12:56;;;;;;;6.07;5.45;;;21.10;63.70;;;;;;5023335;28;20069;-50
2023/06/24 01:15:23;;;;;;;6.60;5.47;;;21.10;63.60;;;;;;5021003;28;20045;-50
2023/06/24 01:17:56;;;;;;;6.15;5.55;;;21.10;63.60;;;;;;5011222;28;20042;-52
2023/06/24 01:20:27;;;;;;;6.93;5.00;;;21.10;63.60;;;;;;5011620;28;20041;-50
2023/06/24 01:23:25;;;;;;;8.38;5.03;;;21.10;63.60;;;;;;5007119;28;20064;-52
2023/06/24 01:26:30;;;;;;;6.57;4.95;;;21.10;64.10;;;;;;5024323;28;20040;-52
2023/06/24 01:29:34;;;;;;;6.15;4.60;;;21.10;64.00;;;;;;5021051;28;20107;-52
2023/06/24 01:32:14;;;;;;;6.72;5.10;;;21.10;63.90;;;;;;5010737;28;20072;-52
2023/06/24 01:34:48;;;;;;;7.35;5.80;;;21.00;63.50;;;;;;5029170;28;20065;-51
2023/06/24 01:37:25;;;;;;;7.65;5.10;;;21.00;63.30;;;;;;5008121;28;20057;-53
2023/06/24 01:40:13;;;;;;;5.00;4.50;;;21.00;63.40;;;;;;5011384;28;20088;-52
2023/06/24 01:42:43;;;;;;;6.55;4.63;;;21.00;63.60;;;;;;5010984;28;20155;-51
2023/06/24 01:45:18;;;;;;;6.88;4.53;;;20.90;63.20;;;;;;5027443;28;20045;-51
2023/06/24 01:47:49;;;;;;;6.07;4.30;;;20.90;63.30;;;;;;5010823;28;20104;-50
2023/06/24 01:50:22;;;;;;;6.65;4.47;;;20.80;63.90;;;;;;5010933;28;20472;-49
2023/06/24 01:52:56;;;;;;;7.35;5.80;;;20.90;63.20;;;;;;5008731;28;20057;-52
2023/06/24 01:55:24;;;;;;;6.03;4.07;;;20.80;63.20;;;;;;5025515;28;20065;-52
2023/06/24 01:57:55;;;;;;;9.27;4.65;;;20.80;63.20;;;;;;5010428;28;20049;-51
2023/06/24 02:00:23;;;;;;;7.50;4.88;;;20.70;63.10;;;;;;5010684;28;20090;-52
2023/06/24 02:02:52;;;;;;;4.88;4.25;;;20.70;63.20;;;;;;5026227;28;20052;-50
2023/06/24 02:05:20;;;;;;;10.05;4.70;;;20.70;63.20;;;;;;5010423;28;20072;-51
2023/06/24 02:07:49;;;;;;;12.00;5.60;;;20.60;63.10;;;;;;5010527;28;20498;-51
2023/06/24 02:10:17;;;;;;;9.50;5.05;;;20.60;63.10;;;;;;5028397;28;20080;-52
2023/06/24 02:12:47;;;;;;;10.70;6.13;;;20.60;63.20;;;;;;5026108;28;20049;-49
2023/06/24 02:15:16;;;;;;;10.80;4.88;;;20.60;63.20;;;;;;5008521;28;20573;-49
2023/06/24 02:17:43;;;;;;;9.38;4.47;;;20.50;63.20;;;;;;5028278;28;20049;-52
2023/06/24 02:20:16;;;;;;;12.38;5.43;;;20.50;63.10;;;;;;5010515;28;20546;-51
2023/06/24 02:22:45;;;;;;;10.93;5.97;;;20.40;63.10;;;;;;5009190;28;20081;-50
2023/06/24 02:25:13;;;;;;;8.32;5.18;;;20.40;63.10;;;;;;5021009;28;20037;-51
2023/06/24 02:27:40;;;;;;;9.65;5.63;;;20.40;63.20;;;;;;5026774;28;20653;-50
2023/06/24 02:30:14;;;;;;;12.32;5.53;;;20.40;63.20;;;;;;5010526;28;20045;-52
2023/06/24 02:32:41;;;;;;;11.70;4.60;;;20.30;63.20;;;;;;5029186;28;20108;-51
2023/06/24 02:35:08;;;;;;;14.35;5.20;;;20.30;63.30;;;;;;5011618;28;20050;-52
2023/06/24 02:37:34;;;;;;;9.23;5.53;;;20.30;63.40;;;;;;5011334;28;20042;-52
2023/06/24 02:40:08;;;;;;;7.57;5.35;;;20.20;63.40;;;;;;5028830;28;20044;-48
2023/06/24 02:42:43;;;;;;;13.25;5.55;;;20.20;63.50;;;;;;5026264;28;20034;-52
2023/06/24 02:45:10;;;;;;;15.35;4.85;;;20.20;63.40;;;;;;5010396;28;20053;-49
2023/06/24 02:47:44;;;;;;;11.73;4.78;;;20.10;63.40;;;;;;5011861;28;20092;-52
2023/06/24 02:50:24;;;;;;;22.52;6.80;;;20.10;63.50;;;;;;5028624;28;20041;-49
2023/06/24 02:52:52;;;;;;;20.10;7.68;;;20.10;63.70;;;;;;5008712;28;20111;-51
2023/06/24 02:55:22;;;;;;;13.33;4.60;;;20.00;64.10;;;;;;5006359;28;20104;-51
2023/06/24 02:57:56;;;;;;;11.82;4.65;;;20.00;63.30;;;;;;5011526;28;20072;-53
2023/06/24 03:00:44;;;;;;;13.88;5.32;;;20.00;63.50;;;;;;5029060;28;20617;-53
2023/06/24 03:03:27;;;;;;;15.73;5.50;;;20.00;63.60;;;;;;5010420;28;20491;-53
2023/06/24 03:05:56;;;;;;;16.00;5.65;;;20.00;63.50;;;;;;5010931;28;20049;-51
2023/06/24 03:08:27;;;;;;;11.45;5.55;;;19.90;63.60;;;;;;4999156;28;20072;-51
2023/06/24 03:10:58;;;;;;;10.27;5.93;;;19.90;63.60;;;;;;5011874;28;20122;-52
2023/06/24 03:13:29;;;;;;;10.70;6.10;;;19.90;63.80;;;;;;5013207;28;20068;-50
2023/06/24 03:16:12;;;;;;;10.02;5.18;;;19.80;63.60;;;;;;5011101;28;20133;-52
2023/06/24 03:18:47;;;;;;;9.48;5.82;;;19.80;63.70;;;;;;5015376;28;20041;-51
2023/06/24 03:21:13;;;;;;;10.68;5.35;;;19.80;63.80;;;;;;5014280;28;20057;-52
2023/06/24 03:23:43;;;;;;;10.60;5.93;;;19.80;63.80;;;;;;5013060;28;20049;-52
2023/06/24 03:26:12;;;;;;;7.97;5.05;;;19.80;64.00;;;;;;5013955;28;20088;-52
2023/06/24 03:28:46;;;;;;;16.10;6.00;;;19.80;64.00;;;;;;5033418;28;20565;-51
2023/06/24 03:31:18;;;;;;;11.85;5.80;;;19.70;64.60;;;;;;5014102;28;20045;-52
2023/06/24 03:33:51;;;;;;;12.45;6.05;;;19.70;64.00;;;;;;5011346;28;20069;-51
2023/06/24 03:36:21;;;;;;;11.07;5.65;;;19.70;64.10;;;;;;5032684;28;20417;-51
2023/06/24 03:38:53;;;;;;;12.65;5.10;;;19.70;64.20;;;;;;5013660;28;20124;-52
2023/06/24 03:41:21;;;;;;;12.27;7.47;;;19.70;64.30;;;;;;5014119;28;20044;-51
2023/06/24 03:43:48;;;;;;;8.90;5.53;;;19.70;64.40;;;;;;5012665;28;20042;-52
2023/06/24 03:46:17;;;;;;;8.25;5.05;;;19.70;64.50;;;;;;5011459;28;20048;-52
2023/06/24 03:48:45;;;;;;;7.90;5.35;;;19.70;64.80;;;;;;5014208;28;20052;-52
2023/06/24 03:51:12;;;;;;;10.52;5.95;;;19.60;64.70;;;;;;5022344;28;20137;-51
2023/06/24 03:53:39;;;;;;;10.77;6.68;;;19.60;64.80;;;;;;5006130;28;20046;-52
2023/06/24 03:56:07;;;;;;;8.07;6.13;;;19.60;65.10;;;;;;5024763;28;20104;-51
2023/06/24 03:58:35;;;;;;;9.10;7.15;;;19.60;65.40;;;;;;5014215;28;20048;-51
2023/06/24 04:01:02;;;;;;;9.95;7.53;;;19.60;65.60;;;;;;5032102;28;20199;-52
2023/06/24 04:03:31;;;;;;;8.60;7.60;;;19.70;65.80;;;;;;5009908;28;20522;-52
2023/06/24 04:06:01;;;;;;;8.40;7.50;;;19.80;66.00;;;;;;5013520;28;20103;-48
2023/06/24 04:08:31;;;;;;;10.85;8.77;;;19.70;66.00;;;;;;5032058;28;20072;-52
2023/06/24 04:11:08;;;;;;;10.87;9.10;;;19.70;66.30;;;;;;5008645;28;20168;-52
2023/06/24 04:13:37;;;;;;;12.55;9.10;;;19.80;67.30;;;;;;5022291;28;20449;-52
2023/06/24 04:16:04;;;;;;;11.23;9.30;;;19.80;66.80;;;;;;5004444;28;20132;-50
2023/06/24 04:18:42;;;;;;;12.02;9.07;;;19.80;67.20;;;;;;5030415;28;20026;-51
2023/06/24 04:21:11;;;;;;;11.15;10.00;;;19.90;67.60;;;;;;5013159;28;20064;-53
2023/06/24 04:23:37;;;;;;;11.32;10.13;;;19.90;67.70;;;;;;5009081;28;20057;-52
2023/06/24 04:26:09;;;;;;;15.32;11.50;;;19.90;67.80;;;;;;5009586;28;20123;-51
2023/06/24 04:28:39;;;;;;;12.82;11.57;;;20.00;68.20;;;;;;5014329;28;20072;-51
2023/06/24 04:31:12;;;;;;;12.93;11.65;;;20.00;68.40;;;;;;5026794;28;20666;-51
2023/06/24 04:33:38;;;;;;;;;;;20.10;68.60;;;;;;5006044;28;20506;-51
2023/06/24 04:36:05;;;;;;;13.27;11.88;;;20.20;68.60;;;;;;5013267;28;19936;-52
2023/06/24 04:38:32;;;;;;;14.77;13.32;;;20.30;68.30;;;;;;5012584;28;20041;-52
2023/06/24 04:41:03;;;;;;;14.73;12.68;;;20.20;68.70;;;;;;5017891;28;20053;-51
2023/06/24 04:43:29;;;;;;;14.70;12.95;;;20.30;68.80;;;;;;5030434;28;20049;-52
2023/06/24 04:45:56;;;;;;;14.60;13.15;;;20.40;68.80;;;;;;5030784;28;20073;-51
2023/06/24 04:48:28;;;;;;;14.77;12.75;;;20.40;69.00;;;;;;5027073;28;20046;-52
2023/06/24 04:50:57;;;;;;;15.00;13.43;;;20.50;69.00;;;;;;5020043;28;20136;-49
2023/06/24 04:53:26;;;;;;;14.52;12.63;;;20.50;68.80;;;;;;5025270;28;20103;-52
2023/06/24 04:55:54;;;;;;;12.63;11.43;;;20.60;68.80;;;;;;5021464;28;20525;-50
2023/06/24 04:58:25;;;;;;;12.60;11.40;;;20.60;68.50;;;;;;5030936;28;20056;-52
2023/06/24 05:00:53;;;;;;;12.85;11.63;;;20.60;68.20;;;;;;5030914;28;20461;-52
2023/06/24 05:03:22;;;;;;;12.98;11.77;;;20.70;68.10;;;;;;5014495;28;20038;-52
2023/06/24 05:05:50;;;;;;;14.32;12.80;;;20.70;68.00;;;;;;5024155;28;20048;-51
2023/06/24 05:08:19;;;;;;;12.40;11.18;;;20.80;68.00;;;;;;5030745;28;20541;-51
2023/06/24 05:10:48;;;;;;;12.70;11.50;;;20.90;67.80;;;;;;5022075;28;20052;-53
2023/06/24 05:13:19;;;;;;;12.35;11.07;;;20.90;67.70;;;;;;5029002;28;20553;-49
2023/06/24 05:15:47;;;;;;;12.65;11.45;;;20.90;67.60;;;;;;5019512;28;20413;-50
2023/06/24 05:18:15;;;;;;;13.25;11.43;;;20.90;67.40;;;;;;5027729;28;20045;-50
2023/06/24 05:20:45;;;;;;;12.35;11.07;;;21.00;67.50;;;;;;5030478;28;20674;-52
2023/06/24 05:23:12;;;;;;;14.10;10.57;;;21.00;67.10;;;;;;5026450;28;20449;-49
2023/06/24 05:25:44;;;;;;;11.07;9.95;;;21.00;66.80;;;;;;5019096;28;20091;-49
2023/06/24 05:28:11;;;;;;;;;;;21.00;66.70;;;;;;5031065;28;20111;-51
2023/06/24 05:30:40;;;;;;;9.55;8.55;;;21.10;66.40;;;;;;5022397;28;19925;-49
2023/06/24 05:33:16;;;;;;;11.77;10.43;;;21.10;65.80;;;;;;5025146;28;20103;-48
2023/06/24 05:35:43;;;;;;;11.32;10.23;;;21.20;66.40;;;;;;5022592;28;20044;-48
2023/06/24 05:38:13;;;;;;;12.15;10.27;;;21.20;65.80;;;;;;5030101;28;20520;-50
2023/06/24 05:40:42;;;;;;;10.50;9.43;;;21.20;65.40;;;;;;5018817;28;20140;-50
2023/06/24 05:43:10;;;;;;;10.52;9.07;;;21.20;65.20;;;;;;5021772;28;20689;-51
2023/06/24 05:45:37;;;;;;;9.82;8.82;;;21.20;65.00;;;;;;5021299;28;20117;-50
2023/06/24 05:48:06;;;;;;;11.63;9.80;;;21.30;64.80;;;;;;5029026;28;20053;-49
2023/06/24 05:50:37;;;;;;;9.68;8.52;;;21.30;64.60;;;;;;5020530;28;20414;-50
2023/06/24 05:53:03;;;;;;;10.77;9.63;;;21.30;64.60;;;;;;5008696;28;20611;-51
2023/06/24 05:55:35;;;;;;;9.45;8.07;;;21.30;64.70;;;;;;5017617;28;20048;-47
2023/06/24 05:58:02;;;;;;;10.48;8.75;;;21.40;64.60;;;;;;5028703;28;20052;-51
2023/06/24 06:00:28;;;;;;;9.65;8.65;;;21.40;64.30;;;;;;5028955;28;20041;-51
2023/06/24 06:02:57;;;;;;;12.02;8.70;;;21.40;64.50;;;;;;5010283;28;20510;-52
2023/06/24 06:05:26;;;;;;;9.07;8.15;;;21.50;64.10;;;;;;5027738;28;20121;-52
2023/06/24 06:07:53;;;;;;;9.30;7.88;;;21.50;63.80;;;;;;5028312;28;20139;-51
2023/06/24 06:10:22;;;;;;;8.90;7.63;;;21.60;63.70;;;;;;5024613;28;20041;-52
2023/06/24 06:12:49;;;;;;;8.05;7.25;;;21.60;63.80;;;;;;5018978;28;20486;-50
2023/06/24 06:15:19;;;;;;;9.88;8.68;;;21.60;63.70;;;;;;5028589;28;20095;-48
2023/06/24 06:17:55;;;;;;;8.38;7.28;;;21.70;63.40;;;;;;5026214;28;20092;-51
2023/06/24 06:20:22;;;;;;;9.07;7.28;;;21.70;63.30;;;;;;5015166;28;20117;-49
2023/06/24 06:22:54;;;;;;;10.73;7.93;;;21.80;63.70;;;;;;5021995;28;20121;-52
2023/06/24 06:25:23;;;;;;;9.15;6.88;;;21.80;63.10;;;;;;5017496;28;20044;-49
2023/06/24 06:27:54;;;;;;;8.63;7.72;;;21.90;63.00;;;;;;5028727;28;20524;-51
2023/06/24 06:30:20;;;;;;;8.88;7.18;;;21.90;62.20;;;;;;5027485;28;20436;-51
2023/06/24 06:32:47;;;;;;;9.85;6.97;;;21.90;61.30;;;;;;5012230;28;20041;-52
2023/06/24 06:35:14;;;;;;;9.60;7.38;;;22.00;61.50;;;;;;5009363;28;20049;-48
2023/06/24 06:37:41;;;;;;;9.60;7.55;;;22.00;61.40;;;;;;5026375;28;20038;-52
2023/06/24 06:40:08;;;;;;;9.93;8.25;;;22.00;61.30;;;;;;5025919;28;20076;-48
2023/06/24 06:42:35;;;;;;;9.82;7.82;;;22.10;61.30;;;;;;5024133;28;20057;-55
2023/06/24 06:45:02;;;;;;;10.07;7.32;;;22.10;61.60;;;;;;5026625;28;20137;-48
2023/06/24 06:47:29;;;;;;;9.18;7.60;;;22.10;61.10;;;;;;5032114;28;20040;-49
2023/06/24 06:49:55;;;;;;;9.95;8.45;;;22.20;61.30;;;;;;5029565;28;20518;-48
2023/06/24 06:52:22;;;;;;;9.98;7.93;;;22.20;61.20;;;;;;5030814;28;20095;-52
2023/06/24 06:54:49;;;;;;;9.80;7.55;;;22.20;61.30;;;;;;5029124;28;20048;-47
2023/06/24 06:57:15;;;;;;;8.85;7.95;;;22.30;61.40;;;;;;5032989;28;20498;-49
2023/06/24 06:59:42;;;;;;;10.00;8.93;;;22.30;61.40;;;;;;5030320;28;20059;-48
2023/06/24 07:02:09;;;;;;;11.32;7.43;;;22.40;61.50;;;;;;5024916;28;20069;-52
2023/06/24 07:04:35;;;;;;;10.20;7.68;;;22.40;61.50;;;;;;5027339;28;20038;-51
2023/06/24 07:07:02;;;;;;;9.63;7.78;;;22.50;61.50;;;;;;5033659;28;20071;-51
2023/06/24 07:09:29;;;;;;;11.38;7.05;;;22.50;61.30;;;;;;5032177;28;20045;-48
2023/06/24 07:11:58;;;;;;;11.93;8.52;;;22.50;61.30;;;;;;5023251;28;20049;-52
2023/06/24 07:14:29;;;;;;;9.48;8.43;;;22.60;60.80;;;;;;5030906;28;20108;-50
2023/06/24 07:16:56;;;;;;;12.23;8.38;;;22.60;60.40;;;;;;5032510;28;20053;-56
2023/06/24 07:19:25;;;;;;;12.30;8.82;;;22.70;60.30;;;;;;5025439;28;20088;-50
2023/06/24 07:21:57;;;;;;;9.77;8.18;;;22.70;60.70;;;;;;5019726;28;20124;-52
2023/06/24 07:24:26;;;;;;;11.80;8.53;;;22.80;61.10;;;;;;5020860;28;20044;-51
2023/06/24 07:26:53;;;;;;;12.45;9.80;;;22.90;61.10;;;;;;5029461;28;20315;-52
2023/06/24 07:29:19;;;;;;;10.00;8.82;;;22.90;60.60;;;;;;5032444;28;20426;-50
2023/06/24 07:31:50;;;;;;;11.48;8.60;;;23.00;60.00;;;;;;5031910;28;20064;-53
2023/06/24 07:34:19;;;;;;;13.98;9.27;;;23.00;59.90;;;;;;5025492;28;20569;-51
2023/06/24 07:36:46;;;;;;;10.07;8.50;;;23.10;60.00;;;;;;5028217;28;20049;-52
2023/06/24 07:39:16;;;;;;;11.50;8.82;;;23.10;60.10;;;;;;5031780;28;20057;-52
2023/06/24 07:41:45;;;;;;;10.00;8.77;;;23.20;59.80;;;;;;5030396;28;20052;-53
2023/06/24 07:44:12;;;;;;;9.75;7.82;;;23.20;60.20;;;;;;5023048;28;20104;-52
2023/06/24 07:46:39;;;;;;;9.82;7.93;;;23.20;59.80;;;;;;5032923;28;20033;-51
2023/06/24 07:49:10;;;;;;;8.82;7.90;;;23.30;60.10;;;;;;5032328;28;20042;-52
2023/06/24 07:51:37;;;;;;;10.23;7.90;;;23.30;59.90;;;;;;5018397;28;20421;-51
2023/06/24 07:54:06;;;;;;;10.02;8.15;;;23.40;60.10;;;;;;5018691;28;20529;-52
2023/06/24 07:56:35;;;;;;;9.23;8.15;;;23.40;60.40;;;;;;5030821;28;20064;-52
2023/06/24 07:59:04;;;;;;;11.80;8.50;;;23.50;60.30;;;;;;5031672;28;20494;-53
2023/06/24 08:01:30;;;;;;;10.98;8.68;;;23.50;59.70;;;;;;5027019;28;20080;-49
2023/06/24 08:03:57;;;;;;;10.38;7.97;;;23.60;60.00;;;;;;5022029;28;20537;-52
2023/06/24 08:06:24;;;;;;;11.80;7.85;;;23.60;60.60;;;;;;5032348;28;20056;-52
2023/06/24 08:08:55;;;;;;;13.50;8.93;;;23.70;60.10;;;;;;5013077;28;20045;-52
2023/06/24 08:11:25;;;;;;;10.90;9.73;;;23.70;59.60;;;;;;5006041;28;20453;-51
2023/06/24 08:13:52;;;;;;;10.20;7.65;;;23.80;59.60;;;;;;5032257;28;20446;-50
2023/06/24 08:16:22;;;;;;;10.60;7.80;;;23.80;59.50;;;;;;5032396;28;20080;-51
2023/06/24 08:18:49;;;;;;;10.90;8.13;;;23.80;58.60;;;;;;5024653;28;20495;-53
2023/06/24 08:21:16;;;;;;;10.48;7.88;;;23.90;58.40;;;;;;5009725;28;20073;-51
2023/06/24 08:23:50;;;;;;;12.75;7.57;;;24.00;59.00;;;;;;5018811;28;20465;-51
2023/06/24 08:26:17;;;;;;;8.07;6.97;;;24.00;58.80;;;;;;5025325;28;20773;-51
2023/06/24 08:28:47;;;;;;;8.65;6.80;;;24.00;58.60;;;;;;5031260;28;20069;-53
2023/06/24 08:31:16;;;;;;;7.30;6.55;;;24.10;57.40;;;;;;5030584;28;20049;-51
2023/06/24 08:33:46;;;;;;;7.57;6.30;;;24.10;57.50;;;;;;5026791;28;20080;-51
2023/06/24 08:36:13;;;;;;;9.43;7.20;;;24.20;57.10;;;;;;5023870;28;20072;-52
2023/06/24 08:38:47;;;;;;;9.70;6.25;;;24.20;57.20;;;;;;5030335;28;20045;-52
2023/06/24 08:41:17;;;;;;;8.25;7.40;;;24.30;56.80;;;;;;5028889;28;20133;-50
2023/06/24 08:43:52;;;;;;;8.20;6.85;;;24.30;56.60;;;;;;5024478;28;20036;-51
2023/06/24 08:46:21;;;;;;;8.05;7.25;;;24.40;56.60;;;;;;5028632;28;20042;-52
2023/06/24 08:49:18;;;;;;;7.97;6.18;;;24.40;56.30;;;;;;5030887;28;20438;-52
2023/06/24 08:51:53;;;;;;;7.45;6.20;;;24.50;55.80;;;;;;5011869;28;20061;-52
2023/06/24 08:54:25;;;;;;;6.35;5.45;;;24.50;55.50;;;;;;5017371;28;20142;-51
2023/06/24 08:56:53;;;;;;;7.97;6.75;;;24.60;56.40;;;;;;5013838;28;20065;-49
2023/06/24 08:59:22;;;;;;;12.23;6.80;;;24.60;56.50;;;;;;5024489;28;20087;-52
2023/06/24 09:01:51;;;;;;;8.18;5.88;;;24.70;56.40;;;;;;5014140;28;20471;-49
2023/06/24 09:04:20;;;;;;;8.27;5.53;;;24.70;55.60;;;;;;5024083;28;20582;-52
2023/06/24 09:06:49;;;;;;;9.52;5.93;;;24.70;54.90;;;;;;5029786;28;20115;-49
2023/06/24 09:09:22;;;;;;;7.97;5.57;;;24.80;54.00;;;;;;5022229;28;20046;-51
2023/06/24 09:11:54;;;;;;;6.40;4.53;;;24.90;52.60;;;;;;5019093;28;20034;-52
2023/06/24 09:14:21;;;;;;;5.67;3.30;;;24.90;52.90;;;;;;5030320;28;20045;-51
2023/06/24 09:17:06;;;;;;;4.25;3.08;;;24.90;51.50;;;;;;5020752;28;20045;-50
2023/06/24 09:19:36;;;;;;;3.63;2.67;;;25.00;50.10;;;;;;5028386;28;20124;-52
2023/06/24 09:22:07;;;;;;;2.95;2.58;;;25.00;50.00;;;;;;5027696;28;20497;-52
2023/06/24 09:24:35;;;;;;;3.05;2.75;;;25.10;49.70;;;;;;5022588;28;20103;-53
2023/06/24 09:27:03;;;;;;;3.33;2.83;;;25.10;49.80;;;;;;5026252;28;20098;-53
2023/06/24 09:29:35;;;;;;;3.25;2.95;;;25.10;49.30;;;;;;5029786;28;20547;-52
2023/06/24 09:32:06;;;;;;;5.60;3.40;;;25.20;49.10;;;;;;5026021;28;20041;-52
2023/06/24 09:34:33;;;;;;;3.35;2.38;;;25.30;48.80;;;;;;5026126;28;20132;-53
2023/06/24 09:37:00;;;;;;;2.70;1.98;;;25.30;47.90;;;;;;5029087;28;20106;-52
2023/06/24 09:39:29;;;;;;;2.63;2.42;;;25.30;47.30;;;;;;5028132;28;20498;-51
2023/06/24 09:42:01;;;;;;;2.17;1.98;;;25.40;47.20;;;;;;5021562;28;20044;-52
2023/06/24 09:44:28;;;;;;;2.55;2.25;;;25.40;45.30;;;;;;5030500;28;20046;-53
2023/06/24 09:46:56;;;;;;;2.45;2.25;;;25.40;46.60;;;;;;5029711;28;20410;-53
2023/06/24 09:49:22;;;;;;;3.28;2.67;;;25.50;46.00;;;;;;5024152;28;20077;-51
2023/06/24 09:51:55;;;;;;;4.10;2.13;;;25.50;45.30;;;;;;5016247;28;20049;-50
2023/06/24 09:54:28;;;;;;;2.28;1.98;;;25.60;44.60;;;;;;5019406;28;20052;-52
2023/06/24 09:57:02;;;;;;;1.92;1.73;;;25.60;44.60;;;;;;5025918;28;20052;-50
2023/06/24 09:59:33;;;;;;;2.03;1.60;;;25.60;44.50;;;;;;5029745;28;20096;-49
2023/06/24 10:02:00;;;;;;;3.40;2.10;;;25.60;43.90;;;;;;5024610;28;20115;-52
2023/06/24 10:04:27;;;;;;;2.10;1.90;;;25.70;43.10;;;;;;5017826;28;20552;-51
2023/06/24 10:06:57;;;;;;;2.03;1.83;;;25.70;43.60;;;;;;5028497;28;20132;-52
2023/06/24 10:09:24;;;;;;;2.50;2.30;;;25.70;42.90;;;;;;5029674;28;20140;-53
2023/06/24 10:11:53;;;;;;;2.33;1.90;;;25.80;43.20;;;;;;5029888;28;20042;-51
2023/06/24 10:14:20;;;;;;;2.55;2.35;;;25.80;42.50;;;;;;5018164;28;20402;-52
2023/06/24 10:16:47;;;;;;;2.80;1.80;;;25.80;43.30;;;;;;5027368;28;20069;-51
2023/06/24 10:19:21;;;;;;;2.60;1.75;;;25.90;42.70;;;;;;5028153;28;20459;-48
2023/06/24 10:21:52;;;;;;;2.05;1.85;;;25.90;40.90;;;;;;5027897;28;20120;-52
2023/06/24 10:24:37;;;;;;;2.40;2.20;;;25.90;42.50;;;;;;5004712;28;20038;-53
2023/06/24 10:27:11;;;;;;;2.35;2.15;;;26.00;42.00;;;;;;5027954;28;20080;-49
2023/06/24 10:29:39;;;;;;;2.20;2.00;;;26.00;43.40;;;;;;5026270;28;20064;-49
2023/06/24 10:32:09;;;;;;;1.83;1.60;;;26.10;42.70;;;;;;5026276;28;20049;-53
2023/06/24 10:34:44;;;;;;;2.95;2.13;;;26.10;40.90;;;;;;5027829;28;20102;-52
2023/06/24 10:37:16;;;;;;;2.00;1.70;;;26.10;42.50;;;;;;5030678;28;20037;-52
2023/06/24 10:39:48;;;;;;;2.08;1.83;;;26.20;42.80;;;;;;5026192;28;20401;-50
2023/06/24 10:42:27;;;;;;;1.83;1.60;;;26.30;41.60;;;;;;5025310;28;20112;-50
2023/06/24 10:44:59;;;;;;;1.92;1.73;;;26.30;41.30;;;;;;5028360;28;20116;-52
2023/06/24 10:47:28;;;;;;;2.03;1.83;;;26.30;41.10;;;;;;5011249;28;20445;-52
2023/06/24 10:49:55;;;;;;;2.00;1.80;;;26.40;41.60;;;;;;5024721;28;20060;-52
2023/06/24 10:52:23;;;;;;;1.67;1.58;;;26.40;40.70;;;;;;5026248;28;20460;-52
2023/06/24 10:54:52;;;;;;;1.88;1.58;;;26.50;39.20;;;;;;5017848;28;20107;-52
2023/06/24 10:57:24;;;;;;;1.85;1.45;;;26.50;40.70;;;;;;5025701;28;20680;-53
2023/06/24 10:59:57;;;;;;;1.88;1.60;;;26.60;39.90;;;;;;5028071;28;20103;-52
2023/06/24 11:02:27;;;;;;;2.22;2.03;;;26.60;38.60;;;;;;5023548;28;20076;-52
2023/06/24 11:04:59;;;;;;;2.03;1.35;;;26.70;40.30;;;;;;5018202;28;20038;-53
2023/06/24 11:07:30;;;;;;;2.08;1.83;;;26.70;38.50;;;;;;5028923;28;20052;-53
2023/06/24 11:10:02;;;;;;;1.67;1.42;;;26.80;38.80;;;;;;5028753;28;20053;-52
2023/06/24 11:12:32;;;;;;;1.05;0.98;;;26.80;39.00;;;;;;5022188;28;20045;-50
2023/06/24 11:15:03;;;;;;;1.58;1.35;;;26.80;38.00;;;;;;5024002;28;20053;-51
2023/06/24 11:17:31;;;;;;;1.27;1.17;;;26.90;38.30;;;;;;5028385;28;20041;-52
2023/06/24 11:19:58;;;;;;;2.95;1.80;;;26.90;38.90;;;;;;5025328;28;20050;-52
2023/06/24 11:22:26;;;;;;;2.97;1.88;;;27.00;38.70;;;;;;5010665;28;20127;-52
2023/06/24 11:24:56;;;;;;;1.75;1.65;;;27.00;39.50;;;;;;5016847;28;20045;-49
2023/06/24 11:27:30;;;;;;;2.95;2.00;;;27.10;39.10;;;;;;5025450;28;20497;-52
2023/06/24 11:30:01;;;;;;;2.20;1.38;;;27.10;38.50;;;;;;5032398;28;20474;-50
2023/06/24 11:32:42;;;;;;;2.95;1.70;;;27.20;39.60;;;;;;5026182;28;20125;-50
2023/06/24 11:35:10;;;;;;;1.90;1.58;;;27.30;39.20;;;;;;5021348;28;20099;-52
2023/06/24 11:37:40;;;;;;;2.08;1.83;;;27.30;38.50;;;;;;5031495;28;20041;-52
2023/06/24 11:40:08;;;;;;;1.50;1.35;;;27.40;38.40;;;;;;5010483;28;20049;-52
2023/06/24 11:42:37;;;;;;;1.88;1.23;;;27.50;38.40;;;;;;5027219;28;20068;-52
2023/06/24 11:45:06;;;;;;;1.17;1.10;;;27.50;37.90;;;;;;5031873;28;20124;-52
2023/06/24 11:47:34;;;;;;;1.42;1.33;;;27.60;38.20;;;;;;5030033;28;20491;-53
2023/06/24 11:50:02;;;;;;;1.83;1.10;;;27.70;37.50;;;;;;5027380;28;20057;-52
2023/06/24 11:52:38;;;;;;;1.33;1.23;;;27.70;37.80;;;;;;5023087;28;20045;-52
2023/06/24 11:55:11;;;;;;;1.30;1.20;;;27.80;36.70;;;;;;5024250;28;20077;-52
2023/06/24 11:57:51;;;;;;;2.00;1.35;;;27.90;36.00;;;;;;5032096;28;20472;-52
2023/06/24 12:00:30;;;;;;;1.77;1.23;;;27.90;36.20;;;;;;5030358;28;20622;-52
2023/06/24 12:03:07;;;;;;;1.63;1.45;;;28.00;35.90;;;;;;5020769;28;20037;-52
2023/06/24 12:05:40;;;;;;;1.40;1.30;;;28.00;36.80;;;;;;5032029;28;20075;-52
2023/06/24 12:08:09;;;;;;;1.85;1.40;;;28.20;37.30;;;;;;5031554;28;20057;-53
2023/06/24 12:10:37;;;;;;;1.90;1.40;;;28.20;36.70;;;;;;5024250;28;20391;-53
2023/06/24 12:13:06;;;;;;;1.42;1.33;;;28.20;37.60;;;;;;5030412;28;20038;-51
2023/06/24 12:15:35;;;;;;;1.92;1.80;;;28.20;38.00;;;;;;5031888;28;20063;-53
2023/06/24 12:18:02;;;;;;;1.73;1.48;;;28.30;37.40;;;;;;5012100;28;20049;-53
2023/06/24 12:20:30;;;;;;;2.38;1.70;;;28.30;36.90;;;;;;5019391;28;20538;-53
2023/06/24 12:23:03;;;;;;;1.42;1.33;;;28.30;37.00;;;;;;5026887;28;20037;-51
2023/06/24 12:25:30;;;;;;;1.55;1.45;;;28.40;38.00;;;;;;5023772;28;20049;-53
2023/06/24 12:28:00;;;;;;;2.08;1.40;;;28.50;38.30;;;;;;5029988;28;20049;-52
2023/06/24 12:30:27;;;;;;;1.52;1.42;;;28.60;38.10;;;;;;5005653;28;20050;-52
2023/06/24 12:32:54;;;;;;;1.75;1.20;;;28.60;37.00;;;;;;5021970;28;20041;-53
2023/06/24 12:35:25;;;;;;;1.80;1.50;;;28.70;37.60;;;;;;5023889;28;20116;-53
2023/06/24 12:37:52;;;;;;;1.98;1.20;;;28.80;37.30;;;;;;5030109;28;20057;-49
2023/06/24 12:40:19;;;;;;;1.20;1.10;;;28.90;36.40;;;;;;5010008;28;20100;-53
2023/06/24 12:42:45;;;;;;;1.33;1.00;;;28.90;35.50;;;;;;5011763;28;20708;-53
2023/06/24 12:45:13;;;;;;;1.60;1.33;;;29.00;35.20;;;;;;5019982;28;20095;-52
2023/06/24 12:47:39;;;;;;;1.80;1.30;;;29.10;34.90;;;;;;5020325;28;20048;-53
2023/06/24 12:50:07;;;;;;;1.63;1.20;;;29.20;36.00;;;;;;5030190;28;20049;-54
2023/06/24 12:52:36;;;;;;;3.33;1.75;;;29.30;35.60;;;;;;5025101;28;20516;-53
2023/06/24 12:55:03;;;;;;;1.65;1.55;;;29.40;34.90;;;;;;5027531;28;20049;-52
2023/06/24 12:57:30;;;;;;;3.53;1.55;;;29.50;34.50;;;;;;5029725;28;20045;-54